Benfield, MD

8:28 AM EDT on April 24, 2017 (GMT -0400)
MID-ATLANTIC TOWER | | Change Station

Elev 125 ft 39.10 °N, 76.62 °W | Updated 2 seconds ago

Mostly Cloudy
Mostly Cloudy
53.3 °F
Feels Like 53.3 °F
N
2.0
Wind Variable Wind from ENE
Gusts 5.0 mph

Today
High -- | Low -- °F
--% Chance of Precip.
Yesterday
High -- | Low -- °F
Precip. -- in
Pressure 30.10 in
Visibility 10.0 miles
Clouds Few 4300 ft
Overcast 7500 ft
Dew Point 45 °F
Humidity 74%
Rainfall 0.00 in
Snow Depth Not available.
6:16 AM 7:52 PM
Waning Crescent, 6% visible
METAR KBWI 241154Z 03008KT 10SM FEW043 OVC075 11/09 A3010 RMK AO2 RAB02E46 SLP192 P0000 60000 T01110094 10117 20111 53011
Pressure 30.10 in
Visibility 10.0 miles
Clouds Few 4300 ft
Overcast 7500 ft
Dew Point 45 °F
Humidity 74%
Rainfall 0.00 in
Snow Depth Not available.
6:16 AM 7:52 PM
Waning Crescent, 6% visible
METAR KBWI 241154Z 03008KT 10SM FEW043 OVC075 11/09 A3010 RMK AO2 RAB02E46 SLP192 P0000 60000 T01110094 10117 20111 53011

Get Severe Weather Alerts

Thanks for signing up!

Be on the lookout for a verification email in your inbox.

You'll start receiving the daily forecast at 8 AM.

×

10-Day Weather Forecast

Almanac

Astronomy

Apr. 24, 2017 Rise Set
Actual Time
Civil Twilight
Nautical Twilight
Astronomical Twilight
Moon
Length of Visible Light
Length of Day
Tomorrow will be .
, % of the Moon is Illuminated

Today's Extremes

State Highs State Lows

Community

WunderPhotos

WunderBlog® & News

Nearby

Air Quality

  Air Quality AQ Index Pollutant
Not available.

Snow Depth

Station Depth Elevation

Earthquake Activity

City Distance Mag. Time & Date
Minimum magnitude displayed is 2.5.

Coastal Water Temperatures

Place Temperature

Stations

Nearby Weather Stations

Station Location Temp. Windchill Dew Point Humidity Wind Precip. Elev Updated Type
                   

Watches & Warnings

There are currently no watches in effect.